Time;durP1;ratioP1;P1;durP2;ratioP2;P2;SDS_P1;SDS_P2;PMS_P1;PMS_P2;Temp;Humidity;BMP_temperature;BMP_pressure;BME280_temperature;BME280_humidity;BME280_pressure;Samples;Min_cycle;Max_cycle;Signal;HPM_P1;HPM_P2
2022/09/29 00:00:27;;;;;;;16.30;11.05;;;;;;;;;;5016576;28;19917;-88
2022/09/29 00:02:53;;;;;;;16.42;10.90;;;;;;;;;;5009047;28;20030;-88
2022/09/29 00:05:18;;;;;;;;;;;;;;;;;;5001817;28;20057;-88
2022/09/29 00:07:44;;;;;;;17.45;11.13;;;;;;;;;;4996405;28;19921;-87
2022/09/29 00:10:09;;;;;;;;;;;;;;;;;;4974168;28;20042;-87
2022/09/29 00:12:35;;;;;;;13.57;10.15;;;;;;;;;;5001107;28;19913;-87
2022/09/29 00:15:00;;;;;;;;;;;;;;;;;;5002728;28;20477;-87
2022/09/29 00:17:25;;;;;;;17.48;10.88;;;;;;;;;;4986433;28;19921;-86
2022/09/29 00:19:51;;;;;;;;;;;;;;;;;;4999808;28;20129;-87
2022/09/29 00:22:16;;;;;;;17.83;10.43;;;;;;;;;;4985773;28;19913;-87
2022/09/29 00:24:42;;;;;;;;;;;;;;;;;;5002435;28;20068;-87
2022/09/29 00:27:07;;;;;;;20.10;11.68;;;;;;;;;;4974338;28;20012;-87
2022/09/29 00:29:32;;;;;;;;;;;;;;;;;;4963682;28;20022;-87
2022/09/29 00:31:58;;;;;;;18.75;12.13;;;;;;;;;;4998510;28;19917;-88
2022/09/29 00:34:23;;;;;;;;;;;;;;;;;;5004415;28;20114;-87
2022/09/29 00:36:49;;;;;;;20.05;11.07;;;;;;;;;;4995941;28;19913;-87
2022/09/29 00:39:14;;;;;;;;;;;;;;;;;;4968897;28;20041;-87
2022/09/29 00:41:40;;;;;;;22.90;11.45;;;;;;;;;;4988835;28;19964;-86
2022/09/29 00:44:05;;;;;;;;;;;;;;;;;;5002507;28;20405;-87
2022/09/29 00:46:31;;;;;;;22.48;11.68;;;;;;;;;;4974886;28;19918;-87
2022/09/29 00:48:56;;;;;;;;;;;;;;;;;;4999525;28;20030;-87
2022/09/29 00:51:22;;;;;;;21.92;11.52;;;;;;;;;;5003488;28;19940;-85
2022/09/29 00:53:47;;;;;;;;;;;;;;;;;;5001775;28;20038;-85
2022/09/29 00:56:13;;;;;;;23.25;11.73;;;;;;;;;;4998795;28;19933;-87
2022/09/29 00:58:38;;;;;;;;;;;;;;;;;;4989514;28;20038;-86
2022/09/29 01:01:04;;;;;;;18.30;10.65;;;;;;;;;;4988437;28;19909;-87
2022/09/29 01:03:29;;;;;;;;;;;;;;;;;;4960952;28;20141;-87
2022/09/29 01:06:09;;;;;;;17.67;10.23;;;;;;;;;;5012972;28;20004;-87
2022/09/29 01:08:38;;;;;;;17.35;10.57;;;;;;;;;;4986095;28;20069;-87
2022/09/29 01:11:03;;;;;;;17.73;10.32;;;;;;;;;;5002079;28;20041;-87
2022/09/29 01:13:29;;;;;;;;;;;;;;;;;;4979950;28;20041;-86
2022/09/29 01:15:55;;;;;;;14.98;9.45;;;;;;;;;;4983378;28;19913;-89
2022/09/29 01:18:20;;;;;;;;;;;;;;;;;;5001953;28;20046;-87
2022/09/29 01:20:50;;;;;;;17.10;10.95;;;;;;;;;;5009007;28;19925;-87
2022/09/29 01:23:15;;;;;;;19.40;10.30;;;;;;;;;;4975081;28;20058;-87
2022/09/29 01:25:41;;;;;;;;;;;;;;;;;;4983529;28;20022;-86
2022/09/29 01:28:12;;;;;;;14.85;9.65;;;;;;;;;;4978920;28;20007;-87
2022/09/29 01:30:44;;;;;;;14.52;9.30;;;;;;;;;;4991972;28;20405;-87
2022/09/29 01:33:28;;;;;;;13.77;9.70;;;;;;;;;;4998520;28;20057;-87
2022/09/29 01:36:00;;;;;;;16.60;10.18;;;;;;;;;;4983764;28;20034;-86
2022/09/29 01:39:04;;;;;;;14.30;10.05;;;;;;;;;;4997953;28;20050;-88
2022/09/29 01:41:56;;;;;;;12.40;8.75;;;;;;;;;;4921461;29;20036;-86
2022/09/29 01:44:22;;;;;;;13.95;9.60;;;;;;;;;;4906908;29;20041;-86
2022/09/29 01:46:47;;;;;;;;;;;;;;;;;;4940278;28;20061;-86
2022/09/29 01:49:13;;;;;;;12.88;8.57;;;;;;;;;;4984362;28;19914;-86
2022/09/29 01:51:38;;;;;;;;;;;;;;;;;;4991508;28;20036;-86
2022/09/29 01:54:05;;;;;;;15.13;9.15;;;;;;;;;;5002736;28;19913;-88
2022/09/29 01:56:32;;;;;;;13.35;9.52;;;;;;;;;;4993467;28;20117;-87
2022/09/29 01:59:18;;;;;;;11.10;8.60;;;;;;;;;;4972563;28;20041;-87
2022/09/29 02:01:44;;;;;;;11.90;9.73;;;;;;;;;;5021647;28;20042;-87
2022/09/29 02:04:09;;;;;;;;;;;;;;;;;;4992857;28;20026;-87
2022/09/29 02:06:36;;;;;;;12.35;9.00;;;;;;;;;;4998761;28;20381;-87
2022/09/29 02:09:02;;;;;;;16.00;9.65;;;;;;;;;;4998855;28;20497;-87
2022/09/29 02:11:28;;;;;;;14.05;8.82;;;;;;;;;;4986022;28;20386;-87
2022/09/29 02:13:53;;;;;;;;;;;;;;;;;;5001561;28;20108;-87
2022/09/29 02:16:20;;;;;;;11.45;7.88;;;;;;;;;;5002120;28;20329;-87
2022/09/29 02:18:53;;;;;;;10.35;8.13;;;;;;;;;;4969892;28;20024;-87
2022/09/29 02:21:18;;;;;;;9.63;7.93;;;;;;;;;;4986833;28;20085;-87
2022/09/29 02:23:44;;;;;;;;;;;;;;;;;;5001511;28;20037;-87
2022/09/29 02:26:10;;;;;;;10.75;8.38;;;;;;;;;;4987139;28;19913;-87
2022/09/29 02:28:35;;;;;;;;;;;;;;;;;;4980908;28;20408;-87
2022/09/29 02:31:01;;;;;;;9.10;7.55;;;;;;;;;;4991156;28;20329;-87
2022/09/29 02:33:26;;;;;;;;;;;;;;;;;;5014198;28;20029;-86
2022/09/29 02:36:11;;;;;;;11.40;7.63;;;;;;;;;;5011451;28;19913;-88
2022/09/29 02:38:40;;;;;;;10.63;7.57;;;;;;;;;;4979011;28;20042;-87
2022/09/29 02:41:07;;;;;;;11.07;7.18;;;;;;;;;;4996032;28;20053;-87
2022/09/29 02:43:35;;;;;;;11.07;7.40;;;;;;;;;;4974646;28;20022;-88
2022/09/29 02:46:01;;;;;;;8.57;6.90;;;;;;;;;;4987068;28;20026;-87
2022/09/29 02:48:30;;;;;;;8.32;7.07;;;;;;;;;;5021605;28;20111;-86
2022/09/29 02:50:58;;;;;;;8.75;7.45;;;;;;;;;;4986139;28;20032;-86
2022/09/29 02:53:24;;;;;;;10.20;7.32;;;;;;;;;;4977054;28;20033;-86
2022/09/29 02:55:49;;;;;;;;;;;;;;;;;;4991653;28;20101;-87
2022/09/29 02:58:17;;;;;;;7.57;6.72;;;;;;;;;;4988639;28;19918;-87
2022/09/29 03:00:43;;;;;;;9.40;6.88;;;;;;;;;;4973531;28;20018;-87
2022/09/29 03:03:08;;;;;;;;;;;;;;;;;;4977064;28;20125;-86
2022/09/29 03:05:34;;;;;;;9.30;6.95;;;;;;;;;;4986052;28;19909;-88
2022/09/29 03:07:59;;;;;;;;;;;;;;;;;;5001647;28;20049;-87
2022/09/29 03:10:24;;;;;;;9.48;7.00;;;;;;;;;;4984489;28;20480;-87
2022/09/29 03:12:50;;;;;;;9.40;6.63;;;;;;;;;;4984280;28;20049;-87
2022/09/29 03:15:16;;;;;;;;;;;;;;;;;;4984961;28;20038;-87
2022/09/29 03:17:42;;;;;;;7.47;6.07;;;;;;;;;;5010900;28;19917;-87
2022/09/29 03:20:07;;;;;;;;;;;;;;;;;;4986501;28;20475;-86
2022/09/29 03:22:33;;;;;;;11.20;7.07;;;;;;;;;;4986828;28;19920;-86
2022/09/29 03:24:59;;;;;;;;;;;;;;;;;;4980870;28;20125;-88
2022/09/29 03:27:45;;;;;;;8.80;7.20;;;;;;;;;;5020207;28;19960;-88
2022/09/29 03:30:12;;;;;;;8.23;7.25;;;;;;;;;;4988258;28;20045;-87
2022/09/29 03:32:37;;;;;;;;;;;;;;;;;;4976678;28;20038;-87
2022/09/29 03:35:03;;;;;;;8.38;7.50;;;;;;;;;;5002540;28;19909;-88
2022/09/29 03:37:29;;;;;;;;;;;;;;;;;;4998389;28;20092;-86
2022/09/29 03:39:54;;;;;;;8.68;7.70;;;;;;;;;;5005700;28;19968;-87
2022/09/29 03:42:23;;;;;;;;;;;;;;;;;;4972847;28;20037;-85
2022/09/29 03:44:48;;;;;;;9.07;7.43;;;;;;;;;;4987694;28;19910;-88
2022/09/29 03:47:13;;;;;;;;;;;;;;;;;;4978404;28;20037;-88
2022/09/29 03:49:39;;;;;;;9.00;7.07;;;;;;;;;;5002769;28;20028;-87
2022/09/29 03:52:04;;;;;;;;;;;;;;;;;;4964164;28;20038;-87
2022/09/29 03:54:30;;;;;;;10.85;7.07;;;;;;;;;;5003829;28;20028;-87
2022/09/29 03:56:55;;;;;;;;;;;;;;;;;;4998795;28;20038;-87
2022/09/29 03:59:21;;;;;;;10.80;6.75;;;;;;;;;;5004139;28;19916;-87
2022/09/29 04:01:46;;;;;;;;;;;;;;;;;;5009778;28;20037;-87
2022/09/29 04:04:12;;;;;;;38.08;30.08;;;;;;;;;;5011197;28;19956;-87
2022/09/29 04:06:37;;;;;;;;;;;;;;;;;;4983621;28;20053;-87
2022/09/29 04:09:03;;;;;;;10.05;8.25;;;;;;;;;;4989114;28;19944;-87
2022/09/29 04:11:28;;;;;;;;;;;;;;;;;;4988299;28;20044;-87
2022/09/29 04:13:53;;;;;;;9.32;7.93;;;;;;;;;;5003599;28;19967;-87
2022/09/29 04:16:19;;;;;;;;;;;;;;;;;;5003944;28;20034;-87
2022/09/29 04:18:44;;;;;;;9.18;7.80;;;;;;;;;;5003817;28;19921;-87
2022/09/29 04:21:10;;;;;;;;;;;;;;;;;;4962650;28;20050;-85
2022/09/29 04:23:35;;;;;;;9.55;7.82;;;;;;;;;;4997085;28;19913;-86
2022/09/29 04:26:01;;;;;;;;;;;;;;;;;;4993059;28;20061;-88
2022/09/29 04:28:26;;;;;;;11.70;7.57;;;;;;;;;;5001041;28;19978;-88
2022/09/29 04:30:52;;;;;;;;;;;;;;;;;;4987620;28;20076;-86
2022/09/29 04:33:17;;;;;;;13.00;7.93;;;;;;;;;;4998913;28;19909;-87
2022/09/29 04:35:43;;;;;;;;;;;;;;;;;;4997996;28;20060;-87
2022/09/29 04:40:38;;;;;;;13.38;8.75;;;;;;;;;;5031308;28;20034;-86
2022/09/29 04:43:04;;;;;;;11.60;8.75;;;;;;;;;;5012353;28;20532;-87
2022/09/29 04:45:31;;;;;;;13.20;9.68;;;;;;;;;;5018218;28;20017;-90
2022/09/29 04:47:56;;;;;;;;;;;;;;;;;;4993424;28;20022;-86
2022/09/29 04:50:22;;;;;;;14.55;9.13;;;;;;;;;;5029602;28;19920;-85
2022/09/29 04:52:47;;;;;;;;;;;;;;;;;;5008558;28;20654;-84
2022/09/29 04:55:13;;;;;;;18.58;10.63;;;;;;;;;;5022772;28;19914;-87
2022/09/29 04:57:38;;;;;;;;;;;;;;;;;;5007529;28;20033;-87
2022/09/29 05:00:05;;;;;;;15.30;9.68;;;;;;;;;;5021191;28;19965;-87
2022/09/29 05:02:31;;;;;;;14.45;10.10;;;;;;;;;;5021512;28;20022;-86
2022/09/29 05:04:56;;;;;;;;;;;;;;;;;;5006121;28;20436;-85
2022/09/29 05:07:22;;;;;;;16.73;10.70;;;;;;;;;;5022121;28;20395;-87
2022/09/29 05:10:09;;;;;;;17.10;11.13;;;;;;;;;;5018242;28;20418;-86
2022/09/29 05:12:34;;;;;;;18.67;10.82;;;;;;;;;;5027928;28;20034;-87
2022/09/29 05:15:00;;;;;;;;;;;;;;;;;;5010040;28;20025;-86
2022/09/29 05:17:25;;;;;;;17.83;10.68;;;;;;;;;;5026185;28;19989;-86
2022/09/29 05:19:51;;;;;;;;;;;;;;;;;;5001038;28;20037;-88
2022/09/29 05:22:23;;;;;;;26.27;15.10;;;;;;;;;;5014965;28;19918;-78
2022/09/29 05:24:49;;;;;;;26.33;15.63;;;;;;;;;;5006019;28;20449;-77
2022/09/29 05:27:15;;;;;;;24.08;15.50;;;;;;;;;;5012105;28;20026;-78
2022/09/29 05:29:40;;;;;;;;;;;;;;;;;;4996627;28;20141;-90
2022/09/29 05:32:06;;;;;;;21.65;14.77;;;;;;;;;;5037112;28;20004;-88
2022/09/29 05:34:34;;;;;;;24.75;14.98;;;;;;;;;;5024271;28;20093;-89
2022/09/29 05:36:59;;;;;;;;;;;;;;;;;;4982531;28;20128;-85
2022/09/29 05:39:25;;;;;;;21.05;13.85;;;;;;;;;;5011819;28;19917;-85
2022/09/29 05:41:50;;;;;;;;;;;;;;;;;;5023590;28;20042;-87
2022/09/29 05:44:16;;;;;;;21.38;14.82;;;;;;;;;;5001069;28;19920;-85
2022/09/29 05:46:41;;;;;;;;;;;;;;;;;;4983885;28;20026;-84
2022/09/29 05:49:07;;;;;;;21.33;15.00;;;;;;;;;;5016090;28;20293;-82
2022/09/29 05:51:32;;;;;;;;;;;;;;;;;;4967473;28;20058;-82
2022/09/29 05:53:58;;;;;;;26.90;16.27;;;;;;;;;;5032464;28;19913;-84
2022/09/29 05:56:23;;;;;;;;;;;;;;;;;;5002495;28;20022;-84
2022/09/29 05:58:49;;;;;;;29.35;17.25;;;;;;;;;;5016821;28;20403;-87
2022/09/29 06:01:14;;;;;;;;;;;;;;;;;;4993052;28;20074;-85
2022/09/29 06:03:40;;;;;;;27.70;18.35;;;;;;;;;;5015638;28;19920;-83
2022/09/29 06:06:05;;;;;;;;;;;;;;;;;;4999601;28;20021;-83
2022/09/29 06:08:31;;;;;;;26.10;17.10;;;;;;;;;;5002878;28;19914;-84
2022/09/29 06:10:56;;;;;;;;;;;;;;;;;;5015381;28;20461;-83
2022/09/29 06:13:22;;;;;;;28.02;17.92;;;;;;;;;;5013179;28;19913;-84
2022/09/29 06:15:47;;;;;;;;;;;;;;;;;;5004513;28;20029;-83
2022/09/29 06:18:12;;;;;;;35.30;19.35;;;;;;;;;;4998353;28;19924;-83
2022/09/29 06:20:38;;;;;;;;;;;;;;;;;;4994641;28;20048;-84
2022/09/29 06:23:03;;;;;;;36.25;19.75;;;;;;;;;;5015070;28;19913;-88
2022/09/29 06:25:29;;;;;;;;;;;;;;;;;;5009986;28;20050;-86
2022/09/29 06:27:54;;;;;;;34.20;20.33;;;;;;;;;;5029401;28;19920;-87
2022/09/29 06:30:20;;;;;;;;;;;;;;;;;;5028447;28;20021;-84
2022/09/29 06:32:45;;;;;;;45.13;20.77;;;;;;;;;;5012274;28;19917;-85
2022/09/29 06:37:55;;;;;;;38.72;19.73;;;;;;;;;;5019996;28;20435;-84
2022/09/29 06:40:22;;;;;;;;;;;;;;;;;;5001769;28;20054;-85
2022/09/29 06:42:48;;;;;;;38.53;20.02;;;;;;;;;;5015183;28;19919;-83
2022/09/29 06:45:14;;;;;;;37.88;20.65;;;;;;;;;;5019349;28;20025;-86
2022/09/29 06:47:39;;;;;;;;;;;;;;;;;;5019563;28;20041;-85
2022/09/29 06:50:05;;;;;;;46.97;20.73;;;;;;;;;;5020669;28;19944;-86
2022/09/29 06:52:31;;;;;;;36.92;19.90;;;;;;;;;;5007089;28;20045;-85
2022/09/29 06:54:56;;;;;;;;;;;;;;;;;;4996377;28;20034;-86
2022/09/29 06:57:22;;;;;;;37.45;20.77;;;;;;;;;;4999743;28;19964;-85
2022/09/29 06:59:47;;;;;;;;;;;;;;;;;;5002631;28;20030;-83
2022/09/29 07:02:13;;;;;;;32.47;19.88;;;;;;;;;;5018557;28;19916;-85
2022/09/29 07:04:38;;;;;;;;;;;;;;;;;;5003198;28;20125;-85
2022/09/29 07:07:04;;;;;;;30.80;18.75;;;;;;;;;;5006870;28;19914;-85
2022/09/29 07:09:29;;;;;;;;;;;;;;;;;;5039768;28;20072;-85
2022/09/29 07:11:55;;;;;;;28.02;18.88;;;;;;;;;;5019963;28;19973;-85
2022/09/29 07:14:24;;;;;;;;;;;;;;;;;;5006345;28;20028;-86
2022/09/29 07:16:50;;;;;;;27.35;18.35;;;;;;;;;;5009270;28;19960;-85
2022/09/29 07:19:16;;;;;;;;;;;;;;;;;;4993500;28;20026;-85
2022/09/29 07:21:42;;;;;;;27.60;16.98;;;;;;;;;;5005991;28;19988;-86
2022/09/29 07:24:07;;;;;;;;;;;;;;;;;;5007841;28;20021;-84
2022/09/29 07:26:33;;;;;;;26.48;17.42;;;;;;;;;;5017571;28;19920;-84
2022/09/29 07:28:58;;;;;;;;;;;;;;;;;;5002457;28;20084;-84
2022/09/29 07:31:24;;;;;;;24.42;16.63;;;;;;;;;;5034268;28;19913;-84
2022/09/29 07:33:49;;;;;;;;;;;;;;;;;;5007244;28;20053;-85
2022/09/29 07:36:15;;;;;;;20.38;16.17;;;;;;;;;;5034436;28;19913;-84
2022/09/29 07:38:41;;;;;;;21.67;15.68;;;;;;;;;;5003454;28;20038;-86
2022/09/29 07:41:06;;;;;;;;;;;;;;;;;;5008111;28;20037;-86
2022/09/29 07:43:32;;;;;;;22.15;14.98;;;;;;;;;;5008220;28;19913;-82
2022/09/29 07:45:59;;;;;;;;;;;;;;;;;;5003408;28;20025;-84
2022/09/29 07:48:24;;;;;;;25.65;14.95;;;;;;;;;;5035306;28;19909;-86
2022/09/29 07:51:16;;;;;;;21.45;13.52;;;;;;;;;;5023162;28;20099;-85
2022/09/29 07:53:41;;;;;;;18.20;12.48;;;;;;;;;;5004350;28;20488;-86
2022/09/29 07:56:07;;;;;;;;;;;;;;;;;;5014935;28;20028;-86
2022/09/29 07:58:32;;;;;;;17.65;11.80;;;;;;;;;;5012274;28;19921;-85
2022/09/29 08:00:58;;;;;;;;;;;;;;;;;;4989640;28;20032;-85
2022/09/29 08:03:24;;;;;;;14.60;10.38;;;;;;;;;;5013726;28;19921;-87
2022/09/29 08:05:51;;;;;;;13.88;9.73;;;;;;;;;;4999354;28;20030;-85
2022/09/29 08:08:16;;;;;;;13.38;9.75;;;;;;;;;;5003991;28;20524;-84
2022/09/29 08:10:42;;;;;;;;;;;;;;;;;;5018693;28;20018;-84
2022/09/29 08:13:08;;;;;;;13.88;10.02;;;;;;;;;;5009312;28;19913;-84
2022/09/29 08:15:33;;;;;;;;;;;;;;;;;;5001827;28;20028;-87
2022/09/29 08:17:58;;;;;;;14.77;9.77;;;;;;;;;;5038582;28;20392;-84
2022/09/29 08:20:25;;;;;;;12.95;9.82;;;;;;;;;;4997339;28;20121;-85
2022/09/29 08:22:51;;;;;;;11.70;8.93;;;;;;;;;;4999243;28;20084;-84
2022/09/29 08:25:16;;;;;;;;;;;;;;;;;;5002366;28;20072;-86
2022/09/29 08:27:42;;;;;;;12.85;8.80;;;;;;;;;;5010888;28;20019;-82
2022/09/29 08:30:09;;;;;;;;;;;;;;;;;;4973384;28;20056;-84
2022/09/29 08:32:35;;;;;;;10.75;7.35;;;;;;;;;;5014543;28;19963;-82
2022/09/29 08:35:00;;;;;;;;;;;;;;;;;;4992706;28;20034;-85
2022/09/29 08:37:26;;;;;;;8.38;6.18;;;;;;;;;;5012376;28;19916;-84
2022/09/29 08:39:51;;;;;;;;;;;;;;;;;;5012942;28;20045;-83
2022/09/29 08:42:23;;;;;;;6.70;5.75;;;;;;;;;;4997828;28;19921;-85
2022/09/29 08:44:55;;;;;;;10.18;6.40;;;;;;;;;;4986942;28;20055;-83
2022/09/29 08:47:23;;;;;;;9.30;6.45;;;;;;;;;;5039042;28;20042;-84
2022/09/29 08:49:53;;;;;;;8.77;6.10;;;;;;;;;;4985983;28;20026;-84
2022/09/29 08:52:23;;;;;;;10.20;5.22;;;;;;;;;;4994021;28;20120;-84
2022/09/29 08:54:49;;;;;;;6.28;4.53;;;;;;;;;;5004136;28;20041;-86
2022/09/29 08:57:19;;;;;;;7.60;4.05;;;;;;;;;;5003335;28;20060;-85
2022/09/29 08:59:54;;;;;;;5.65;4.40;;;;;;;;;;4992656;28;20038;-86
2022/09/29 09:02:26;;;;;;;7.20;4.40;;;;;;;;;;5005177;28;20042;-86
2022/09/29 09:05:10;;;;;;;5.90;4.40;;;;;;;;;;5000973;28;20030;-85
2022/09/29 09:07:39;;;;;;;8.45;4.50;;;;;;;;;;5032366;28;20040;-86
2022/09/29 09:10:07;;;;;;;9.43;4.55;;;;;;;;;;5008026;28;20434;-86
2022/09/29 09:12:33;;;;;;;7.50;5.00;;;;;;;;;;5012454;28;20033;-85
2022/09/29 09:14:58;;;;;;;;;;;;;;;;;;5016206;28;20098;-84
2022/09/29 09:17:27;;;;;;;7.97;4.68;;;;;;;;;;5021057;28;19917;-87
2022/09/29 09:19:54;;;;;;;5.88;4.13;;;;;;;;;;5017152;28;20057;-85
2022/09/29 09:22:23;;;;;;;5.53;4.20;;;;;;;;;;4999954;28;20030;-85
2022/09/29 09:24:58;;;;;;;5.72;4.22;;;;;;;;;;5006194;28;20109;-84
2022/09/29 09:27:25;;;;;;;6.15;4.38;;;;;;;;;;5014150;28;20045;-85
2022/09/29 09:29:56;;;;;;;5.53;3.97;;;;;;;;;;5022503;28;20125;-87
2022/09/29 09:32:24;;;;;;;6.55;4.00;;;;;;;;;;5007931;28;20036;-85
2022/09/29 09:34:54;;;;;;;6.53;3.97;;;;;;;;;;5002221;28;20029;-87
2022/09/29 09:37:21;;;;;;;7.05;3.92;;;;;;;;;;5018682;28;20041;-86
2022/09/29 09:39:59;;;;;;;5.95;4.32;;;;;;;;;;5000668;28;20050;-85
2022/09/29 09:42:26;;;;;;;8.10;4.10;;;;;;;;;;4984828;28;20568;-86
2022/09/29 09:44:53;;;;;;;10.60;4.20;;;;;;;;;;5000779;28;20117;-84
2022/09/29 09:47:28;;;;;;;6.03;4.07;;;;;;;;;;5011254;28;20029;-87
2022/09/29 09:49:59;;;;;;;6.03;5.05;;;;;;;;;;4982777;28;20030;-84
2022/09/29 09:52:35;;;;;;;5.95;3.90;;;;;;;;;;5012772;28;20140;-87
2022/09/29 09:55:04;;;;;;;8.55;4.18;;;;;;;;;;4996142;28;20064;-86
2022/09/29 09:57:45;;;;;;;5.80;4.03;;;;;;;;;;5006602;28;20486;-87
2022/09/29 10:00:15;;;;;;;7.70;4.32;;;;;;;;;;5023178;28;20041;-85
2022/09/29 10:02:50;;;;;;;6.68;4.72;;;;;;;;;;5005023;28;20017;-85
2022/09/29 10:05:16;;;;;;;7.07;4.20;;;;;;;;;;5020783;28;20119;-84
2022/09/29 10:07:42;;;;;;;12.32;5.35;;;;;;;;;;5004794;28;20026;-84
2022/09/29 10:10:07;;;;;;;;;;;;;;;;;;5013835;28;20055;-84
2022/09/29 10:12:33;;;;;;;6.55;4.90;;;;;;;;;;5035957;28;19916;-83
2022/09/29 10:14:58;;;;;;;;;;;;;;;;;;5021418;28;20510;-82
2022/09/29 10:17:25;;;;;;;7.93;4.60;;;;;;;;;;5010658;28;19941;-84
2022/09/29 10:19:52;;;;;;;7.63;4.75;;;;;;;;;;4961728;28;20039;-85
2022/09/29 10:22:17;;;;;;;7.85;4.70;;;;;;;;;;5008351;28;20022;-84
2022/09/29 10:24:42;;;;;;;;;;;;;;;;;;5006093;28;20044;-86
2022/09/29 10:27:09;;;;;;;5.80;4.78;;;;;;;;;;5021807;28;19932;-86
2022/09/29 10:29:39;;;;;;;6.53;4.55;;;;;;;;;;4984715;28;20054;-84
2022/09/29 10:32:04;;;;;;;5.43;4.45;;;;;;;;;;4997364;28;20029;-85
2022/09/29 10:34:30;;;;;;;;;;;;;;;;;;5006024;28;20042;-83
2022/09/29 10:36:56;;;;;;;6.68;4.10;;;;;;;;;;5019456;28;20399;-84
2022/09/29 10:39:32;;;;;;;8.25;4.43;;;;;;;;;;5002800;28;20049;-85
2022/09/29 10:41:57;;;;;;;5.57;4.18;;;;;;;;;;4985621;28;20041;-84
2022/09/29 10:44:23;;;;;;;;;;;;;;;;;;4992369;28;20037;-82
2022/09/29 10:46:48;;;;;;;5.20;4.10;;;;;;;;;;5013794;28;20458;-85
2022/09/29 10:49:15;;;;;;;6.88;4.63;;;;;;;;;;5020862;28;20029;-83
2022/09/29 10:51:41;;;;;;;5.93;4.45;;;;;;;;;;5035634;28;20039;-84
2022/09/29 10:54:07;;;;;;;5.30;4.18;;;;;;;;;;5021262;28;20102;-84
2022/09/29 10:56:33;;;;;;;6.63;4.30;;;;;;;;;;5006551;28;20040;-88
2022/09/29 10:58:59;;;;;;;5.22;4.40;;;;;;;;;;5004101;28;20037;-83
2022/09/29 11:01:25;;;;;;;8.77;4.70;;;;;;;;;;4997230;28;20030;-84
2022/09/29 11:03:50;;;;;;;;;;;;;;;;;;5016474;28;20056;-86
2022/09/29 11:06:16;;;;;;;5.25;4.47;;;;;;;;;;5040644;28;19913;-84
2022/09/29 11:08:54;;;;;;;7.10;4.20;;;;;;;;;;5004465;28;20040;-84
2022/09/29 11:11:20;;;;;;;5.43;4.32;;;;;;;;;;4997548;28;20038;-83
2022/09/29 11:13:45;;;;;;;;;;;;;;;;;;5005160;28;20080;-83
2022/09/29 11:16:18;;;;;;;7.22;4.03;;;;;;;;;;5006794;28;19913;-84
2022/09/29 11:18:44;;;;;;;6.32;4.75;;;;;;;;;;5008246;28;20054;-85
2022/09/29 11:21:17;;;;;;;6.05;4.18;;;;;;;;;;4972940;28;20022;-84
2022/09/29 11:23:48;;;;;;;6.07;4.03;;;;;;;;;;4991135;28;20041;-85
2022/09/29 11:26:16;;;;;;;7.10;4.05;;;;;;;;;;5011200;28;20065;-84
2022/09/29 11:28:45;;;;;;;8.70;4.43;;;;;;;;;;5007903;28;20053;-83
2022/09/29 11:31:30;;;;;;;6.60;4.20;;;;;;;;;;5003427;28;20037;-82
2022/09/29 11:34:01;;;;;;;4.57;4.00;;;;;;;;;;4983014;28;20029;-83
2022/09/29 11:36:27;;;;;;;6.70;4.30;;;;;;;;;;5018621;28;20037;-83
2022/09/29 11:38:52;;;;;;;;;;;;;;;;;;5011179;28;20054;-84
2022/09/29 11:41:32;;;;;;;7.07;3.80;;;;;;;;;;5019237;28;20008;-83
2022/09/29 11:44:06;;;;;;;5.47;4.00;;;;;;;;;;5018919;28;20037;-84
2022/09/29 11:46:32;;;;;;;6.85;3.95;;;;;;;;;;4996716;28;20037;-82
2022/09/29 11:48:59;;;;;;;;;;;;;;;;;;5010924;28;20034;-83
2022/09/29 11:51:29;;;;;;;5.40;4.25;;;;;;;;;;5031850;28;19936;-86
2022/09/29 11:53:58;;;;;;;4.65;3.90;;;;;;;;;;5002953;28;20042;-83
2022/09/29 11:56:23;;;;;;;5.55;4.05;;;;;;;;;;5011739;28;20037;-85
2022/09/29 11:59:07;;;;;;;6.53;4.07;;;;;;;;;;5014975;28;20086;-84
2022/09/29 12:01:43;;;;;;;6.15;4.20;;;;;;;;;;4997688;28;20439;-83
2022/09/29 12:04:17;;;;;;;5.47;4.00;;;;;;;;;;4998004;28;20509;-83
2022/09/29 12:06:46;;;;;;;5.95;4.05;;;;;;;;;;5032987;28;20068;-84
2022/09/29 12:09:21;;;;;;;5.40;4.05;;;;;;;;;;5031556;28;20029;-83
2022/09/29 12:12:05;;;;;;;6.57;3.60;;;;;;;;;;5015601;28;20478;-85
2022/09/29 12:14:34;;;;;;;5.28;3.50;;;;;;;;;;5014309;28;20409;-83
2022/09/29 12:17:01;;;;;;;5.25;3.60;;;;;;;;;;5010483;28;20413;-83
2022/09/29 12:19:27;;;;;;;4.90;3.25;;;;;;;;;;5004074;28;20034;-85
2022/09/29 12:21:54;;;;;;;4.25;3.00;;;;;;;;;;4989155;28;20022;-84
2022/09/29 12:24:32;;;;;;;3.83;2.95;;;;;;;;;;5000984;28;20037;-84
2022/09/29 12:26:58;;;;;;;4.05;3.10;;;;;;;;;;5016568;28;20588;-84
2022/09/29 12:29:33;;;;;;;3.90;3.10;;;;;;;;;;4996141;28;20120;-85
2022/09/29 12:32:00;;;;;;;3.85;2.80;;;;;;;;;;5011316;28;20045;-83
2022/09/29 12:34:29;;;;;;;4.35;3.17;;;;;;;;;;5023339;28;20042;-84
2022/09/29 12:37:01;;;;;;;7.63;3.10;;;;;;;;;;5007563;28;20069;-84
2022/09/29 12:39:42;;;;;;;4.70;3.35;;;;;;;;;;5006794;28;20049;-84
2022/09/29 12:42:20;;;;;;;5.53;3.45;;;;;;;;;;4997018;28;20033;-84
2022/09/29 12:44:47;;;;;;;3.78;2.90;;;;;;;;;;5031625;28;20495;-84
2022/09/29 12:47:45;;;;;;;4.07;2.95;;;;;;;;;;5000770;28;20030;-84
2022/09/29 12:50:16;;;;;;;6.13;2.72;;;;;;;;;;4965537;28;20037;-84
2022/09/29 12:52:51;;;;;;;6.75;2.67;;;;;;;;;;4999253;28;20117;-84
2022/09/29 12:55:28;;;;;;;5.93;3.70;;;;;;;;;;5016753;28;20093;-84
2022/09/29 12:57:53;;;;;;;4.60;3.10;;;;;;;;;;5013743;28;20041;-84
2022/09/29 13:00:19;;;;;;;5.72;3.10;;;;;;;;;;5006813;28;20033;-84
2022/09/29 13:02:47;;;;;;;3.78;2.75;;;;;;;;;;4995769;28;20048;-86
2022/09/29 13:05:32;;;;;;;3.60;2.60;;;;;;;;;;5018623;28;20485;-82
2022/09/29 13:08:13;;;;;;;5.05;3.00;;;;;;;;;;5034116;28;20095;-85
2022/09/29 13:10:47;;;;;;;2.95;2.60;;;;;;;;;;5031290;28;20563;-84
2022/09/29 13:13:16;;;;;;;4.65;3.15;;;;;;;;;;5018590;28;20045;-84
2022/09/29 13:15:41;;;;;;;3.33;2.85;;;;;;;;;;5031608;28;20052;-86
2022/09/29 13:18:13;;;;;;;6.93;3.38;;;;;;;;;;5016289;28;20034;-83
2022/09/29 13:20:48;;;;;;;4.13;3.20;;;;;;;;;;5000040;28;20026;-85
2022/09/29 13:23:37;;;;;;;4.35;3.20;;;;;;;;;;5008536;28;20067;-85
2022/09/29 13:26:04;;;;;;;3.33;3.03;;;;;;;;;;4990296;28;20045;-83
2022/09/29 13:28:34;;;;;;;3.80;3.03;;;;;;;;;;5026111;28;20064;-84
2022/09/29 13:31:04;;;;;;;3.67;3.08;;;;;;;;;;5013719;28;20045;-84
2022/09/29 13:33:30;;;;;;;4.78;3.33;;;;;;;;;;4984545;28;20038;-84
2022/09/29 13:35:56;;;;;;;4.35;3.38;;;;;;;;;;5008294;28;20168;-86
2022/09/29 13:38:25;;;;;;;3.80;3.03;;;;;;;;;;4997233;28;20072;-83
2022/09/29 13:41:10;;;;;;;3.47;3.10;;;;;;;;;;4988852;28;20442;-84
2022/09/29 13:43:48;;;;;;;4.22;3.20;;;;;;;;;;4971531;28;20050;-84
2022/09/29 13:46:35;;;;;;;5.15;2.90;;;;;;;;;;5011360;28;20052;-84
2022/09/29 13:49:12;;;;;;;5.10;3.10;;;;;;;;;;5023698;28;20128;-86
2022/09/29 13:51:44;;;;;;;4.15;2.90;;;;;;;;;;5015172;28;20496;-83
2022/09/29 13:54:28;;;;;;;7.13;3.03;;;;;;;;;;5021679;28;20037;-84
2022/09/29 13:57:04;;;;;;;4.95;2.88;;;;;;;;;;5014172;28;20413;-84
2022/09/29 13:59:30;;;;;;;4.22;3.17;;;;;;;;;;5018598;28;20034;-85
2022/09/29 14:01:56;;;;;;;4.22;2.90;;;;;;;;;;4989205;28;20397;-86
2022/09/29 14:04:30;;;;;;;4.18;3.03;;;;;;;;;;4999393;28;20048;-87
2022/09/29 14:06:57;;;;;;;4.10;3.05;;;;;;;;;;5029508;28;20048;-87
2022/09/29 14:09:23;;;;;;;3.65;2.97;;;;;;;;;;5031426;28;20045;-85
2022/09/29 14:11:49;;;;;;;6.40;2.97;;;;;;;;;;5011719;28;20611;-78
2022/09/29 14:14:23;;;;;;;6.47;3.30;;;;;;;;;;5017749;28;20485;-77
2022/09/29 14:16:48;;;;;;;5.82;3.30;;;;;;;;;;5026737;28;20039;-78
2022/09/29 14:19:20;;;;;;;4.65;3.50;;;;;;;;;;5005352;28;20029;-78
2022/09/29 14:21:45;;;;;;;7.78;3.42;;;;;;;;;;5029628;28;20410;-77
2022/09/29 14:24:30;;;;;;;5.65;3.30;;;;;;;;;;5025855;28;20112;-77
2022/09/29 14:27:12;;;;;;;6.32;3.60;;;;;;;;;;5001036;28;20037;-77
2022/09/29 14:29:39;;;;;;;6.22;4.32;;;;;;;;;;5017565;28;20034;-79
2022/09/29 14:32:11;;;;;;;8.27;4.65;;;;;;;;;;4996291;28;20018;-81
2022/09/29 14:34:38;;;;;;;9.88;5.80;;;;;;;;;;4977470;28;20048;-78
2022/09/29 14:37:03;;;;;;;9.55;5.15;;;;;;;;;;5006111;28;20120;-80
2022/09/29 14:39:29;;;;;;;8.15;4.50;;;;;;;;;;4999437;28;20124;-78
2022/09/29 14:41:55;;;;;;;7.93;4.15;;;;;;;;;;5003670;28;20037;-78
2022/09/29 14:44:20;;;;;;;10.73;4.63;;;;;;;;;;5016867;28;20040;-78
2022/09/29 14:52:44;;;;;;;8.65;4.20;;;;;;;;;;5023364;28;20033;-78
2022/09/29 14:55:30;;;;;;;7.22;4.40;;;;;;;;;;4997940;28;20590;-78
2022/09/29 14:57:56;;;;;;;;;;;;;;;;;;5011508;28;20066;-78
2022/09/29 15:00:23;;;;;;;10.02;4.95;;;;;;;;;;5005131;28;19993;-79
2022/09/29 15:02:49;;;;;;;7.28;4.47;;;;;;;;;;5014385;28;20038;-78
2022/09/29 15:05:24;;;;;;;7.25;5.35;;;;;;;;;;5019809;28;20025;-78
2022/09/29 15:07:50;;;;;;;6.88;4.25;;;;;;;;;;5004741;28;20034;-77
2022/09/29 15:10:16;;;;;;;;;;;;;;;;;;5003833;28;20030;-78
2022/09/29 15:12:48;;;;;;;9.70;4.63;;;;;;;;;;5001547;28;20064;-82
2022/09/29 15:15:31;;;;;;;7.80;4.05;;;;;;;;;;4997379;28;20033;-79
2022/09/29 15:18:00;;;;;;;7.32;4.75;;;;;;;;;;4994012;28;20109;-77
2022/09/29 15:20:32;;;;;;;5.82;4.53;;;;;;;;;;4981114;28;20014;-77
2022/09/29 15:23:03;;;;;;;7.28;4.60;;;;;;;;;;4994960;28;20033;-79